Time;durP1;ratioP1;P1;durP2;ratioP2;P2;SDS_P1;SDS_P2;PMS_P1;PMS_P2;Temp;Humidity;BMP_temperature;BMP_pressure;BME280_temperature;BME280_humidity;BME280_pressure;Samples;Min_cycle;Max_cycle;Signal;HPM_P1;HPM_P2
2021/03/31 00:00:36;;;;;;;;;;;24.20;48.30;;;;;;4969943;28;20360;-54
2021/03/31 00:03:05;;;;;;;;;;;24.20;48.30;;;;;;4955534;29;19926;-54
2021/03/31 00:05:30;;;;;;;;;;;24.20;48.30;;;;;;4957739;28;19987;-53
2021/03/31 00:07:56;;;;;;;;;;;24.10;48.20;;;;;;4957534;28;20012;-54
2021/03/31 00:10:27;;;;;;;;;;;24.10;48.20;;;;;;4974709;28;19956;-54
2021/03/31 00:12:53;;;;;;;;;;;24.10;48.20;;;;;;4974640;28;19910;-53
2021/03/31 00:15:19;;;;;;;;;;;24.00;48.20;;;;;;4956854;28;20319;-53
2021/03/31 00:17:45;;;;;;;;;;;24.10;48.30;;;;;;4955437;29;20375;-55
2021/03/31 00:20:12;;;;;;;;;;;24.00;48.30;;;;;;4956125;29;20005;-54
2021/03/31 00:22:38;;;;;;;;;;;24.00;48.30;;;;;;4956236;28;19953;-54
2021/03/31 00:25:04;;;;;;;;;;;24.00;48.40;;;;;;4957486;28;20308;-53
2021/03/31 00:27:30;;;;;;;;;;;24.00;48.40;;;;;;4957736;28;19907;-53
2021/03/31 00:29:55;;;;;;;;;;;24.00;48.40;;;;;;4955393;29;19969;-53
2021/03/31 00:32:21;;;;;;;;;;;24.00;48.40;;;;;;4970222;28;19910;-53
2021/03/31 00:34:47;;;;;;;;;;;24.00;48.40;;;;;;4973786;28;20294;-54
2021/03/31 00:37:13;;;;;;;;;;;24.00;48.40;;;;;;4960537;28;19910;-54
2021/03/31 00:39:39;;;;;;;;;;;23.90;48.40;;;;;;4955204;29;20332;-54
2021/03/31 00:42:05;;;;;;;;;;;24.00;48.50;;;;;;4949846;28;20264;-54
2021/03/31 00:44:30;;;;;;;;;;;23.90;48.40;;;;;;4974153;28;20352;-53
2021/03/31 00:46:56;;;;;;;;;;;23.90;48.40;;;;;;4963691;28;19923;-54
2021/03/31 00:49:22;;;;;;;;;;;23.90;48.40;;;;;;4938123;29;19906;-54
2021/03/31 00:51:48;;;;;;;;;;;23.90;48.40;;;;;;4938392;29;19916;-53
2021/03/31 00:54:14;;;;;;;;;;;23.90;48.50;;;;;;4937756;29;19906;-53
2021/03/31 00:56:40;;;;;;;;;;;23.90;48.50;;;;;;4955448;28;19933;-53
2021/03/31 00:59:07;;;;;;;;;;;23.90;48.50;;;;;;4955069;28;20368;-54
2021/03/31 01:01:32;;;;;;;;;;;23.90;48.50;;;;;;4960131;28;19910;-54
2021/03/31 01:03:58;;;;;;;;;;;23.90;48.50;;;;;;4956724;28;19918;-53
2021/03/31 01:06:24;;;;;;;;;;;23.90;48.50;;;;;;4956205;28;20360;-53
2021/03/31 01:08:50;;;;;;;;;;;23.90;48.50;;;;;;4956618;28;19914;-53
2021/03/31 01:11:21;;;;;;;;;;;23.90;48.50;;;;;;4971765;28;19921;-54
2021/03/31 01:13:50;;;;;;;;;;;23.80;48.50;;;;;;4954786;29;20026;-53
2021/03/31 01:16:25;;;;;;;;;;;23.80;48.50;;;;;;4956066;28;19910;-53
2021/03/31 01:18:54;;;;;;;;;;;23.80;48.50;;;;;;4974059;28;19921;-54
2021/03/31 01:21:38;;;;;;;;;;;23.80;48.50;;;;;;4972568;28;19910;-53
2021/03/31 01:24:23;;;;;;;;;;;23.80;48.50;;;;;;4973981;28;20061;-53
2021/03/31 01:26:52;;;;;;;;;;;23.80;48.60;;;;;;4969196;28;19910;-54
2021/03/31 01:29:26;;;;;;;;;;;23.80;48.60;;;;;;4954771;29;19938;-53
2021/03/31 01:32:08;;;;;;;;;;;23.80;48.60;;;;;;4955159;28;19973;-54
2021/03/31 01:34:43;;;;;;;;;;;23.80;48.60;;;;;;4954852;29;20345;-54
2021/03/31 01:37:18;;;;;;;;;;;23.80;48.60;;;;;;4961156;28;19914;-54
2021/03/31 01:39:45;;;;;;;;;;;23.80;48.60;;;;;;4974215;28;19910;-54
2021/03/31 01:42:12;;;;;;;;;;;23.80;48.60;;;;;;4967564;28;19906;-54
2021/03/31 01:44:40;;;;;;;;;;;23.80;48.60;;;;;;4954539;29;19921;-54
2021/03/31 01:47:07;;;;;;;;;;;23.80;48.70;;;;;;4959663;28;19953;-54
2021/03/31 01:49:33;;;;;;;;;;;23.80;48.60;;;;;;4973138;28;19910;-53
2021/03/31 01:52:00;;;;;;;;;;;23.80;48.60;;;;;;4970532;28;20238;-53
2021/03/31 01:54:27;;;;;;;;;;;23.70;48.60;;;;;;4954598;29;19925;-53
2021/03/31 01:56:53;;;;;;;;;;;23.70;48.60;;;;;;4956542;28;19910;-53
2021/03/31 01:59:20;;;;;;;;;;;23.70;48.60;;;;;;4976798;28;19910;-53
2021/03/31 02:01:49;;;;;;;;;;;23.70;48.60;;;;;;4976419;28;19910;-53
2021/03/31 02:04:15;;;;;;;;;;;23.70;48.60;;;;;;4957773;29;19924;-53
2021/03/31 02:06:41;;;;;;;;;;;23.70;48.60;;;;;;4958085;29;20001;-53
2021/03/31 02:09:07;;;;;;;;;;;23.70;48.60;;;;;;4977391;28;20353;-53
2021/03/31 02:11:33;;;;;;;;;;;23.70;48.60;;;;;;4976983;28;19914;-54
2021/03/31 02:14:01;;;;;;;;;;;23.70;48.60;;;;;;4959439;28;19907;-53
2021/03/31 02:16:28;;;;;;;;;;;23.70;48.60;;;;;;4957717;29;20009;-54
2021/03/31 02:18:55;;;;;;;;;;;23.70;48.60;;;;;;4973422;28;20299;-57
2021/03/31 02:21:21;;;;;;;;;;;23.60;48.50;;;;;;4976996;28;19910;-57
2021/03/31 02:23:48;;;;;;;;;;;23.60;48.50;;;;;;4976296;28;19917;-57
2021/03/31 02:26:14;;;;;;;;;;;23.60;48.60;;;;;;4977019;28;19910;-57
2021/03/31 02:28:39;;;;;;;;;;;23.60;48.60;;;;;;4976219;28;19928;-58
2021/03/31 02:31:05;;;;;;;;;;;23.60;48.50;;;;;;4976409;28;20023;-58
2021/03/31 02:33:33;;;;;;;;;;;23.60;48.50;;;;;;4975377;28;19910;-58
2021/03/31 02:35:59;;;;;;;;;;;23.60;48.50;;;;;;4976425;28;19949;-58
2021/03/31 02:38:25;;;;;;;;;;;23.50;48.50;;;;;;4958488;28;19906;-57
2021/03/31 02:40:51;;;;;;;;;;;23.50;48.40;;;;;;4976792;28;19914;-57
2021/03/31 02:43:18;;;;;;;;;;;23.50;48.40;;;;;;4976023;28;19921;-57
2021/03/31 02:45:46;;;;;;;;;;;23.70;48.50;;;;;;4976697;28;19921;-58
2021/03/31 02:48:14;;;;;;;;;;;23.50;48.50;;;;;;4968927;28;19911;-57
2021/03/31 02:50:40;;;;;;;;;;;23.50;48.50;;;;;;4957155;29;19933;-58
2021/03/31 02:53:06;;;;;;;;;;;23.50;48.50;;;;;;4973792;28;20379;-58
2021/03/31 02:55:32;;;;;;;;;;;23.50;48.50;;;;;;4959045;28;20261;-58
2021/03/31 02:58:00;;;;;;;;;;;23.40;48.40;;;;;;4975744;28;19921;-57
2021/03/31 03:00:26;;;;;;;;;;;23.40;48.50;;;;;;4976592;28;19945;-57
2021/03/31 03:02:52;;;;;;;;;;;23.40;48.50;;;;;;4955963;28;19957;-58
2021/03/31 03:05:19;;;;;;;;;;;23.40;48.50;;;;;;4956694;29;20265;-57
2021/03/31 03:07:46;;;;;;;;;;;23.40;48.50;;;;;;4969375;28;19910;-58
2021/03/31 03:10:12;;;;;;;;;;;23.50;48.60;;;;;;4975371;28;19964;-57
2021/03/31 03:12:43;;;;;;;;;;;23.40;48.50;;;;;;4958230;28;19910;-58
2021/03/31 03:15:11;;;;;;;;;;;23.40;48.50;;;;;;4975050;28;19907;-58
2021/03/31 03:17:37;;;;;;;;;;;23.50;48.60;;;;;;4958788;28;19914;-57
2021/03/31 03:20:04;;;;;;;;;;;23.40;48.60;;;;;;4975645;28;20438;-57
2021/03/31 03:22:30;;;;;;;;;;;23.40;48.50;;;;;;4958393;28;19912;-58
2021/03/31 03:24:56;;;;;;;;;;;23.40;48.50;;;;;;4957676;28;19923;-57
2021/03/31 03:27:22;;;;;;;;;;;23.40;48.50;;;;;;4956260;29;20006;-57
2021/03/31 03:29:49;;;;;;;;;;;23.40;48.40;;;;;;4972186;28;20304;-57
2021/03/31 03:32:16;;;;;;;;;;;23.40;48.40;;;;;;4975972;28;19975;-58
2021/03/31 03:34:42;;;;;;;;;;;23.40;48.50;;;;;;4960689;28;19914;-57
2021/03/31 03:37:08;;;;;;;;;;;23.40;48.50;;;;;;4967336;28;19910;-57
2021/03/31 03:39:34;;;;;;;;;;;23.30;48.50;;;;;;4961996;28;20333;-58
2021/03/31 03:42:00;;;;;;;;;;;23.30;48.50;;;;;;4956293;29;19911;-57
2021/03/31 03:44:26;;;;;;;;;;;23.30;48.50;;;;;;4967312;28;20429;-58
2021/03/31 03:46:55;;;;;;;;;;;23.30;48.50;;;;;;4974668;28;19910;-58
2021/03/31 03:49:21;;;;;;;;;;;23.30;48.60;;;;;;4973908;28;19913;-58
2021/03/31 03:51:48;;;;;;;;;;;23.30;48.60;;;;;;4974392;28;19913;-57
2021/03/31 03:54:14;;;;;;;;;;;23.30;48.60;;;;;;4965515;28;19911;-58
2021/03/31 03:56:45;;;;;;;;;;;23.30;48.60;;;;;;4938140;29;19918;-57
2021/03/31 03:59:17;;;;;;;;;;;23.30;48.60;;;;;;4962734;28;19910;-54
2021/03/31 04:01:43;;;;;;;;;;;23.30;48.60;;;;;;4974409;28;20010;-53
2021/03/31 04:04:09;;;;;;;;;;;23.30;48.60;;;;;;4966747;28;19952;-53
2021/03/31 04:06:35;;;;;;;;;;;23.30;48.60;;;;;;4955168;29;19922;-53
2021/03/31 04:09:01;;;;;;;;;;;23.30;48.50;;;;;;4956093;28;19929;-53
2021/03/31 04:11:27;;;;;;;;;;;23.30;48.50;;;;;;4954785;29;19914;-53
2021/03/31 04:13:53;;;;;;;;;;;23.30;48.40;;;;;;4958282;28;19910;-57
2021/03/31 04:16:20;;;;;;;;;;;23.30;48.40;;;;;;4974117;28;19913;-57
2021/03/31 04:18:47;;;;;;;;;;;23.30;48.40;;;;;;4971529;28;19918;-56
2021/03/31 04:21:13;;;;;;;;;;;23.20;48.40;;;;;;4954597;28;20356;-57
2021/03/31 04:23:39;;;;;;;;;;;23.20;48.40;;;;;;4955993;28;20364;-57
2021/03/31 04:26:05;;;;;;;;;;;23.20;48.50;;;;;;4974708;28;20005;-57
2021/03/31 04:28:31;;;;;;;;;;;23.20;48.50;;;;;;4974712;28;19917;-56
2021/03/31 04:30:57;;;;;;;;;;;23.20;48.50;;;;;;4938031;29;19919;-57
2021/03/31 04:33:24;;;;;;;;;;;23.20;48.50;;;;;;4954512;28;19953;-57
2021/03/31 04:35:53;;;;;;;;;;;23.20;48.60;;;;;;4971952;28;20001;-58
2021/03/31 04:38:19;;;;;;;;;;;23.20;48.60;;;;;;4974483;28;20380;-57
2021/03/31 04:40:56;;;;;;;;;;;23.20;48.50;;;;;;4958189;28;19906;-57
2021/03/31 04:43:23;;;;;;;;;;;23.20;48.50;;;;;;4955196;29;19962;-56
2021/03/31 04:45:49;;;;;;;;;;;23.20;48.50;;;;;;4970890;28;19917;-57
2021/03/31 04:48:15;;;;;;;;;;;23.20;48.50;;;;;;4974362;28;19906;-57
2021/03/31 04:50:41;;;;;;;;;;;23.20;48.50;;;;;;4959569;28;19914;-57
2021/03/31 04:53:07;;;;;;;;;;;23.20;48.60;;;;;;4955122;29;20045;-57
2021/03/31 04:55:33;;;;;;;;;;;23.20;48.60;;;;;;4967440;28;19926;-57
2021/03/31 04:57:59;;;;;;;;;;;23.20;48.60;;;;;;4974320;28;19932;-58
2021/03/31 05:00:25;;;;;;;;;;;23.20;48.60;;;;;;4962687;28;19917;-57
2021/03/31 05:02:50;;;;;;;;;;;23.20;48.50;;;;;;4954938;29;19918;-58
2021/03/31 05:05:17;;;;;;;;;;;23.20;48.50;;;;;;4946811;28;19973;-58
2021/03/31 05:07:43;;;;;;;;;;;23.10;48.50;;;;;;4974330;28;19910;-59
2021/03/31 05:10:09;;;;;;;;;;;23.20;48.50;;;;;;4972462;28;19910;-58
2021/03/31 05:12:35;;;;;;;;;;;23.10;48.50;;;;;;4973963;28;20335;-57
2021/03/31 05:15:01;;;;;;;;;;;23.10;48.50;;;;;;4973687;28;19910;-58
2021/03/31 05:17:27;;;;;;;;;;;23.10;48.50;;;;;;4974096;28;19929;-57
2021/03/31 05:19:53;;;;;;;;;;;23.20;48.60;;;;;;4968217;28;19910;-57
2021/03/31 05:22:18;;;;;;;;;;;23.10;48.40;;;;;;4954998;29;19958;-57
2021/03/31 05:24:44;;;;;;;;;;;23.10;48.40;;;;;;4960570;28;19910;-54
2021/03/31 05:27:10;;;;;;;;;;;23.10;48.40;;;;;;4974101;28;19914;-54
2021/03/31 05:29:36;;;;;;;;;;;23.10;48.50;;;;;;4971504;28;20357;-54
2021/03/31 05:32:02;;;;;;;;;;;23.10;48.50;;;;;;4955014;29;19910;-54
2021/03/31 05:34:28;;;;;;;;;;;23.10;48.50;;;;;;4958358;28;19910;-54
2021/03/31 05:36:54;;;;;;;;;;;23.10;48.50;;;;;;4960614;28;19910;-53
2021/03/31 05:39:20;;;;;;;;;;;23.10;48.50;;;;;;4977929;28;20268;-53
2021/03/31 05:41:46;;;;;;;;;;;23.10;48.50;;;;;;4959025;28;19910;-53
2021/03/31 05:44:11;;;;;;;;;;;23.10;48.50;;;;;;4941009;29;19916;-53
2021/03/31 05:46:38;;;;;;;;;;;23.10;48.50;;;;;;4974630;28;20257;-53
2021/03/31 05:49:04;;;;;;;;;;;23.10;48.50;;;;;;4959863;28;20272;-53
2021/03/31 05:51:31;;;;;;;;;;;23.10;48.50;;;;;;4976875;28;19913;-54
2021/03/31 05:53:56;;;;;;;;;;;23.10;48.50;;;;;;4959721;28;19914;-54
2021/03/31 05:56:23;;;;;;;;;;;23.00;48.40;;;;;;4976844;28;19980;-54
2021/03/31 05:58:49;;;;;;;;;;;23.10;48.50;;;;;;4958757;28;19917;-53
2021/03/31 06:01:15;;;;;;;;;;;23.10;48.40;;;;;;4969054;28;19914;-53
2021/03/31 06:03:41;;;;;;;;;;;23.10;48.40;;;;;;4966960;28;19925;-54
2021/03/31 06:06:08;;;;;;;;;;;23.00;48.40;;;;;;4962202;28;20754;-54
2021/03/31 06:08:33;;;;;;;;;;;23.00;48.40;;;;;;4972896;28;20309;-54
2021/03/31 06:11:00;;;;;;;;;;;23.00;48.40;;;;;;4970118;28;19913;-53
2021/03/31 06:13:26;;;;;;;;;;;23.00;48.40;;;;;;4973570;28;19910;-53
2021/03/31 06:15:52;;;;;;;;;;;23.00;48.40;;;;;;4971148;28;20391;-54
2021/03/31 06:18:19;;;;;;;;;;;23.00;48.40;;;;;;4967417;28;19910;-54
2021/03/31 06:20:47;;;;;;;;;;;23.00;48.40;;;;;;4965306;28;20391;-54
2021/03/31 06:25:57;;;;;;;;;;;23.00;48.40;;;;;;4969991;28;20265;-52
2021/03/31 06:28:41;;;;;;;;;;;23.00;48.40;;;;;;4974861;28;20004;-52
2021/03/31 06:31:09;;;;;;;;;;;23.10;48.50;;;;;;4974260;28;20683;-52
2021/03/31 06:33:35;;;;;;;;;;;23.00;48.40;;;;;;4976587;28;19993;-53
2021/03/31 06:36:02;;;;;;;;;;;23.00;48.40;;;;;;4972498;28;20079;-54
2021/03/31 06:38:29;;;;;;;;;;;23.00;48.30;;;;;;4976555;28;19910;-54
2021/03/31 06:40:59;;;;;;;;;;;23.00;48.30;;;;;;4975532;28;19914;-53
2021/03/31 06:43:30;;;;;;;;;;;23.00;48.30;;;;;;4976270;28;19914;-54
2021/03/31 06:45:59;;;;;;;;;;;23.00;48.30;;;;;;4951775;28;20269;-54
2021/03/31 06:48:28;;;;;;;;;;;23.10;48.30;;;;;;4957154;29;19960;-54
2021/03/31 06:50:53;;;;;;;;;;;23.10;48.20;;;;;;4962022;28;20384;-53
2021/03/31 06:53:29;;;;;;;;;;;23.00;48.20;;;;;;4978662;28;19909;-53
2021/03/31 06:56:03;;;;;;;;;;;23.00;48.10;;;;;;4975342;28;19910;-54
2021/03/31 06:58:29;;;;;;;;;;;23.00;48.20;;;;;;4976152;28;19910;-54
2021/03/31 07:00:55;;;;;;;;;;;23.10;48.20;;;;;;4965567;28;19917;-53
2021/03/31 07:03:22;;;;;;;;;;;23.00;48.20;;;;;;4956651;28;19918;-53
2021/03/31 07:05:49;;;;;;;;;;;23.10;48.30;;;;;;4966900;28;19946;-54
2021/03/31 07:08:15;;;;;;;;;;;23.10;48.30;;;;;;4975834;28;19965;-54
2021/03/31 07:10:42;;;;;;;;;;;23.10;48.30;;;;;;4968392;28;19910;-54
2021/03/31 07:13:09;;;;;;;;;;;23.10;48.30;;;;;;4964694;28;19957;-53
2021/03/31 07:15:35;;;;;;;;;;;23.10;48.30;;;;;;4974957;28;19984;-54
2021/03/31 07:18:01;;;;;;;;;;;23.10;48.30;;;;;;4975757;28;19914;-53
2021/03/31 07:20:29;;;;;;;;;;;23.10;48.30;;;;;;4974860;28;20327;-54
2021/03/31 07:22:55;;;;;;;;;;;23.10;48.20;;;;;;4975378;28;20004;-53
2021/03/31 07:25:22;;;;;;;;;;;23.10;48.20;;;;;;4973208;28;19918;-53
2021/03/31 07:27:49;;;;;;;;;;;23.10;48.20;;;;;;4973875;28;19914;-54
2021/03/31 07:30:17;;;;;;;;;;;23.20;48.20;;;;;;4971663;28;19943;-54
2021/03/31 07:32:51;;;;;;;;;;;23.20;48.20;;;;;;4956178;29;19917;-54
2021/03/31 07:35:19;;;;;;;;;;;23.20;48.30;;;;;;4967252;28;20276;-54
2021/03/31 07:37:46;;;;;;;;;;;23.20;48.20;;;;;;4975092;28;19906;-54
2021/03/31 07:40:13;;;;;;;;;;;23.20;48.20;;;;;;4974672;28;19953;-53
2021/03/31 07:42:41;;;;;;;;;;;23.30;48.20;;;;;;4958906;28;19910;-54
2021/03/31 07:45:09;;;;;;;;;;;23.30;48.20;;;;;;4963903;28;19920;-54
2021/03/31 07:47:36;;;;;;;;;;;23.30;48.20;;;;;;4974685;28;19964;-53
2021/03/31 07:50:03;;;;;;;;;;;23.30;48.20;;;;;;4973951;28;19911;-54
2021/03/31 07:52:47;;;;;;;;;;;23.30;48.20;;;;;;4974570;28;20380;-54
2021/03/31 07:55:33;;;;;;;;;;;23.40;48.20;;;;;;4966894;28;19917;-53
2021/03/31 07:58:21;;;;;;;;;;;23.40;48.20;;;;;;4967436;28;19917;-53
2021/03/31 08:00:48;;;;;;;;;;;23.40;48.80;;;;;;4957749;28;19911;-54
2021/03/31 08:03:15;;;;;;;;;;;23.40;48.20;;;;;;4962544;28;19979;-53
2021/03/31 08:05:59;;;;;;;;;;;23.40;48.20;;;;;;4956049;28;19918;-54
2021/03/31 08:08:25;;;;;;;;;;;23.50;48.20;;;;;;4980007;28;19910;-54
2021/03/31 08:10:51;;;;;;;;;;;23.50;48.20;;;;;;4974159;28;19916;-57
2021/03/31 08:13:27;;;;;;;;;;;23.50;48.10;;;;;;4993525;28;20371;-57
2021/03/31 08:15:53;;;;;;;;;;;23.60;48.10;;;;;;4954609;28;19910;-57
2021/03/31 08:18:19;;;;;;;;;;;23.60;48.10;;;;;;4991073;28;20000;-54
2021/03/31 08:20:45;;;;;;;;;;;23.60;48.00;;;;;;4958054;28;19910;-54
2021/03/31 08:23:11;;;;;;;;;;;23.60;48.00;;;;;;4962852;28;19915;-54
2021/03/31 08:25:39;;;;;;;;;;;23.60;47.90;;;;;;4993968;28;20256;-56
2021/03/31 08:28:06;;;;;;;;;;;23.60;47.90;;;;;;4947760;28;19921;-58
2021/03/31 08:30:33;;;;;;;;;;;23.70;48.00;;;;;;4974548;28;19917;-57
2021/03/31 08:32:59;;;;;;;;;;;23.70;47.90;;;;;;4972404;28;19914;-58
2021/03/31 08:35:26;;;;;;;;;;;23.70;47.90;;;;;;4955401;28;20041;-53
2021/03/31 08:37:52;;;;;;;;;;;23.80;47.90;;;;;;4974378;28;19917;-57
2021/03/31 08:40:18;;;;;;;;;;;23.80;47.90;;;;;;4967574;28;19914;-58
2021/03/31 08:42:52;;;;;;;;;;;23.90;47.90;;;;;;4955763;28;20005;-59
2021/03/31 08:45:27;;;;;;;;;;;23.90;47.80;;;;;;4959813;28;19961;-56
2021/03/31 08:47:53;;;;;;;;;;;23.90;47.80;;;;;;4956356;28;19977;-56
2021/03/31 08:50:27;;;;;;;;;;;23.90;47.80;;;;;;4966604;28;20364;-57
2021/03/31 08:53:01;;;;;;;;;;;24.00;47.70;;;;;;4970126;28;19920;-58
2021/03/31 08:55:30;;;;;;;;;;;24.00;47.60;;;;;;4958221;28;20005;-57
2021/03/31 08:57:57;;;;;;;;;;;24.00;47.60;;;;;;4955286;29;20336;-57
2021/03/31 09:00:22;;;;;;;;;;;24.00;47.50;;;;;;4965703;28;19918;-59
2021/03/31 09:02:48;;;;;;;;;;;24.00;47.40;;;;;;4972799;28;19914;-57
2021/03/31 09:05:14;;;;;;;;;;;24.10;47.30;;;;;;4963246;28;20424;-57
2021/03/31 09:07:41;;;;;;;;;;;24.10;47.20;;;;;;4990391;28;19909;-58
2021/03/31 09:10:12;;;;;;;;;;;24.10;47.30;;;;;;4982142;28;19996;-58
2021/03/31 09:12:38;;;;;;;;;;;24.10;47.20;;;;;;4985374;28;19954;-59
2021/03/31 09:15:05;;;;;;;;;;;24.10;47.00;;;;;;4973591;28;19956;-58
2021/03/31 09:17:32;;;;;;;;;;;24.10;46.90;;;;;;4976286;28;20369;-58
2021/03/31 09:19:59;;;;;;;;;;;24.10;47.00;;;;;;4975515;28;19941;-58
2021/03/31 09:22:26;;;;;;;;;;;24.10;47.00;;;;;;4960103;28;19932;-58
2021/03/31 09:25:03;;;;;;;;;;;24.10;46.90;;;;;;4967508;28;19914;-58
2021/03/31 09:27:30;;;;;;;;;;;24.10;46.80;;;;;;4972085;28;20000;-58
2021/03/31 09:29:56;;;;;;;;;;;24.10;46.90;;;;;;4979530;28;19916;-58
2021/03/31 09:32:30;;;;;;;;;;;24.20;47.50;;;;;;4973745;28;19992;-58
2021/03/31 09:35:03;;;;;;;;;;;24.20;47.00;;;;;;4978186;28;19910;-54
2021/03/31 09:37:29;;;;;;;;;;;24.20;46.80;;;;;;4965918;28;19914;-55
2021/03/31 09:39:58;;;;;;;;;;;24.20;46.90;;;;;;4969470;28;20288;-56
2021/03/31 09:42:34;;;;;;;;;;;24.20;46.90;;;;;;4970476;28;19910;-56
2021/03/31 09:45:00;;;;;;;;;;;24.30;47.00;;;;;;4964933;28;19915;-56
2021/03/31 09:47:31;;;;;;;;;;;24.30;47.00;;;;;;4984559;28;19909;-56
2021/03/31 09:49:57;;;;;;;;;;;24.40;47.00;;;;;;4972124;28;20403;-56
2021/03/31 09:52:27;;;;;;;;;;;24.40;46.90;;;;;;4974108;28;20337;-55
2021/03/31 09:54:53;;;;;;;;;;;24.50;46.90;;;;;;4976737;28;20004;-56
2021/03/31 09:57:24;;;;;;;;;;;24.50;46.70;;;;;;4979727;28;20044;-56
2021/03/31 09:59:50;;;;;;;;;;;24.60;46.70;;;;;;4976409;28;19932;-56
2021/03/31 10:02:16;;;;;;;;;;;24.70;46.70;;;;;;4977118;28;20411;-56
2021/03/31 10:04:42;;;;;;;;;;;24.70;46.50;;;;;;4971494;28;19914;-56
2021/03/31 10:07:09;;;;;;;;;;;24.80;46.10;;;;;;4976556;28;19925;-56
2021/03/31 10:09:48;;;;;;;;;;;24.80;46.00;;;;;;4974735;28;19916;-56
2021/03/31 10:12:26;;;;;;;;;;;24.90;45.90;;;;;;4970795;28;19910;-57
2021/03/31 10:14:55;;;;;;;;;;;24.90;45.50;;;;;;4975525;28;19993;-55
2021/03/31 10:17:22;;;;;;;;;;;24.90;45.50;;;;;;4975277;28;19910;-56
2021/03/31 10:19:49;;;;;;;;;;;24.90;45.70;;;;;;4970037;28;19910;-55
2021/03/31 10:22:15;;;;;;;;;;;24.90;45.40;;;;;;4968422;28;19907;-55
2021/03/31 10:24:45;;;;;;;;;;;24.90;45.40;;;;;;4976242;28;20009;-55
2021/03/31 10:27:12;;;;;;;;;;;25.00;45.50;;;;;;4971647;28;20268;-56
2021/03/31 10:29:48;;;;;;;;;;;25.00;45.20;;;;;;4965115;28;19911;-56
2021/03/31 10:32:16;;;;;;;;;;;25.10;45.30;;;;;;4966785;28;20323;-57
2021/03/31 10:34:46;;;;;;;;;;;25.10;45.30;;;;;;4955107;28;19941;-55
2021/03/31 10:37:23;;;;;;;;;;;25.20;45.30;;;;;;4965729;28;19916;-60
2021/03/31 10:53:37;;;;;;;;;;;25.60;44.70;;;;;;4911624;29;19911;-58
2021/03/31 10:56:03;;;;;;;;;;;25.70;44.70;;;;;;4899383;29;19911;-56
2021/03/31 10:58:29;;;;;;;;;;;25.80;44.70;;;;;;4897619;29;19916;-58
2021/03/31 11:00:55;;;;;;;;;;;25.80;44.50;;;;;;4897657;29;19939;-57
2021/03/31 11:03:24;;;;;;;;;;;26.00;44.60;;;;;;4897921;29;19963;-56
2021/03/31 11:05:50;;;;;;;;;;;26.00;44.40;;;;;;4898184;29;19923;-56
2021/03/31 11:08:16;;;;;;;;;;;26.10;44.40;;;;;;4897985;29;20342;-57
2021/03/31 11:10:42;;;;;;;;;;;26.20;44.30;;;;;;4897830;29;19911;-56
2021/03/31 11:13:08;;;;;;;;;;;26.30;43.80;;;;;;4897834;29;19919;-57
2021/03/31 11:15:34;;;;;;;;;;;26.40;43.70;;;;;;4897827;29;19911;-56
2021/03/31 11:25:58;;;;;;;;;;;26.80;42.20;;;;;;4956350;29;20006;-57
2021/03/31 11:28:25;;;;;;;;;;;26.90;42.40;;;;;;4955813;29;19918;-56
2021/03/31 11:30:51;;;;;;;;;;;26.90;42.10;;;;;;4955553;28;20262;-56
2021/03/31 11:33:17;;;;;;;;;;;27.10;42.00;;;;;;4956514;28;19973;-56
2021/03/31 11:35:43;;;;;;;;;;;27.20;42.20;;;;;;4956232;29;19961;-56
2021/03/31 11:38:10;;;;;;;;;;;27.40;42.00;;;;;;4939270;29;20384;-57
2021/03/31 11:40:36;;;;;;;;;;;27.50;41.90;;;;;;4939222;29;19917;-57
2021/03/31 11:43:02;;;;;;;;;;;27.60;41.80;;;;;;4938986;29;19917;-57
2021/03/31 11:45:28;;;;;;;;;;;27.70;42.00;;;;;;4956117;29;19906;-57
2021/03/31 11:47:54;;;;;;;;;;;27.90;41.90;;;;;;4956525;29;19997;-57
2021/03/31 11:50:24;;;;;;;;;;;28.10;41.80;;;;;;4954944;29;20423;-56
2021/03/31 11:52:51;;;;;;;;;;;28.30;41.90;;;;;;4938864;29;19969;-56
2021/03/31 11:55:16;;;;;;;;;;;28.60;41.90;;;;;;4956123;29;20049;-57
2021/03/31 11:57:42;;;;;;;;;;;28.80;41.50;;;;;;4956027;29;19966;-58
2021/03/31 12:00:09;;;;;;;;;;;29.00;41.20;;;;;;4955890;29;20000;-59
2021/03/31 12:02:34;;;;;;;;;;;29.10;41.10;;;;;;4956389;28;20372;-59
2021/03/31 12:05:00;;;;;;;;;;;29.40;40.70;;;;;;4955978;28;19915;-59
2021/03/31 12:07:28;;;;;;;;;;;29.50;40.40;;;;;;4955835;29;19918;-60
2021/03/31 12:09:54;;;;;;;;;;;29.60;39.90;;;;;;4938499;29;20249;-60
2021/03/31 12:12:20;;;;;;;;;;;29.50;39.50;;;;;;4954749;29;20001;-59
2021/03/31 12:14:46;;;;;;;;;;;29.50;39.40;;;;;;4955590;29;19946;-59
2021/03/31 12:17:12;;;;;;;;;;;29.40;39.40;;;;;;4955568;29;19906;-59
2021/03/31 12:19:38;;;;;;;;;;;29.30;39.40;;;;;;4955799;29;20348;-58
2021/03/31 12:22:04;;;;;;;;;;;29.20;39.40;;;;;;4955830;29;19910;-59
2021/03/31 12:24:30;;;;;;;;;;;29.00;39.40;;;;;;4955409;29;19918;-58
2021/03/31 12:27:02;;;;;;;;;;;29.00;39.50;;;;;;4956079;29;20046;-60
2021/03/31 12:29:28;;;;;;;;;;;28.90;39.60;;;;;;4955521;29;19910;-60
2021/03/31 12:31:54;;;;;;;;;;;28.70;39.70;;;;;;4955320;29;20392;-60
2021/03/31 12:34:20;;;;;;;;;;;28.70;39.80;;;;;;4955546;29;19910;-58
2021/03/31 12:36:46;;;;;;;;;;;28.60;39.90;;;;;;4959125;28;19914;-59
2021/03/31 12:39:12;;;;;;;;;;;28.50;40.00;;;;;;4993945;28;19933;-58
2021/03/31 12:41:38;;;;;;;;;;;28.40;40.00;;;;;;4993986;28;19914;-59
2021/03/31 12:44:04;;;;;;;;;;;28.40;40.10;;;;;;4975881;28;20012;-59
2021/03/31 12:46:30;;;;;;;;;;;28.30;40.20;;;;;;4993931;28;19916;-58
2021/03/31 12:48:55;;;;;;;;;;;28.20;40.30;;;;;;4994176;28;19905;-59
2021/03/31 12:51:40;;;;;;;;;;;28.20;40.40;;;;;;4976269;28;19909;-58
2021/03/31 12:54:20;;;;;;;;;;;28.10;40.40;;;;;;4994187;28;19945;-59
2021/03/31 12:56:46;;;;;;;;;;;28.10;40.40;;;;;;4993770;28;20389;-59
2021/03/31 12:59:11;;;;;;;;;;;28.00;40.50;;;;;;4994032;28;19906;-58
2021/03/31 13:01:38;;;;;;;;;;;28.00;40.60;;;;;;4994032;28;19925;-60
2021/03/31 13:04:04;;;;;;;;;;;28.00;40.60;;;;;;4993809;28;20291;-59
2021/03/31 13:06:31;;;;;;;;;;;27.90;40.70;;;;;;4976481;28;19971;-59
2021/03/31 13:08:58;;;;;;;;;;;27.90;40.70;;;;;;4993632;28;19929;-58
2021/03/31 13:11:24;;;;;;;;;;;27.90;40.60;;;;;;4993869;28;19981;-58
2021/03/31 13:16:58;;;;;;;;;;;27.80;40.70;;;;;;4993620;28;19925;-59
2021/03/31 13:32:35;;;;;;;;;;;27.70;40.90;;;;;;4993594;28;19941;-59
2021/03/31 13:35:06;;;;;;;;;;;27.70;40.90;;;;;;4993372;28;19909;-59
2021/03/31 13:37:38;;;;;;;;;;;27.70;41.00;;;;;;4976404;28;19956;-58
2021/03/31 13:40:07;;;;;;;;;;;27.70;40.90;;;;;;4993569;28;19956;-59
2021/03/31 13:42:33;;;;;;;;;;;27.70;40.80;;;;;;4993707;28;20355;-59
2021/03/31 13:44:59;;;;;;;;;;;27.60;40.80;;;;;;4976006;28;19913;-59
2021/03/31 13:47:28;;;;;;;;;;;27.60;40.80;;;;;;4993183;28;20260;-58
2021/03/31 13:50:01;;;;;;;;;;;27.60;40.70;;;;;;4993322;28;19913;-58
2021/03/31 13:52:30;;;;;;;;;;;27.60;40.70;;;;;;4993556;28;19914;-58
2021/03/31 13:54:58;;;;;;;;;;;27.60;40.60;;;;;;4978449;28;19997;-59
2021/03/31 13:57:28;;;;;;;;;;;27.60;40.70;;;;;;4996872;28;19905;-58
2021/03/31 13:59:54;;;;;;;;;;;27.60;40.70;;;;;;4997030;28;19909;-59
2021/03/31 14:02:20;;;;;;;;;;;27.60;40.90;;;;;;4979332;28;19909;-59
2021/03/31 14:04:46;;;;;;;;;;;27.60;40.60;;;;;;4996594;28;19921;-59
2021/03/31 14:07:12;;;;;;;;;;;27.60;40.70;;;;;;4996341;28;20315;-59
2021/03/31 14:09:39;;;;;;;;;;;27.60;40.80;;;;;;4996682;28;20279;-58
2021/03/31 14:12:06;;;;;;;;;;;27.50;40.70;;;;;;4996472;28;19952;-59
2021/03/31 14:14:32;;;;;;;;;;;27.60;40.90;;;;;;4996660;28;20242;-60
2021/03/31 14:17:03;;;;;;;;;;;27.50;40.80;;;;;;4996591;28;19914;-58
2021/03/31 14:19:32;;;;;;;;;;;27.50;40.80;;;;;;4996812;28;19910;-59
2021/03/31 14:21:59;;;;;;;;;;;27.50;40.90;;;;;;4996670;28;19906;-59
2021/03/31 14:24:28;;;;;;;;;;;27.60;41.10;;;;;;4995999;28;20348;-59
2021/03/31 14:26:53;;;;;;;;;;;27.50;41.10;;;;;;4994395;28;19914;-59
2021/03/31 14:29:19;;;;;;;;;;;27.50;41.10;;;;;;4996564;28;20359;-60
2021/03/31 14:31:45;;;;;;;;;;;27.50;41.10;;;;;;4996549;28;20005;-59
2021/03/31 14:34:11;;;;;;;;;;;27.50;41.10;;;;;;4996314;28;19905;-58
2021/03/31 14:36:37;;;;;;;;;;;27.50;41.20;;;;;;4996169;28;20390;-58
2021/03/31 14:39:05;;;;;;;;;;;27.50;41.10;;;;;;4996380;28;19910;-58
2021/03/31 14:41:31;;;;;;;;;;;27.50;41.10;;;;;;4995920;28;19906;-58
2021/03/31 14:43:57;;;;;;;;;;;27.50;41.10;;;;;;4996198;28;19928;-58
2021/03/31 14:46:22;;;;;;;;;;;27.50;41.10;;;;;;4978612;28;19913;-59
2021/03/31 14:48:49;;;;;;;;;;;27.50;41.20;;;;;;4996237;28;19906;-59
2021/03/31 14:51:18;;;;;;;;;;;27.50;41.00;;;;;;4996103;28;20000;-58
2021/03/31 14:57:02;;;;;;;;;;;27.40;40.70;;;;;;4995811;28;19910;-59
2021/03/31 15:01:58;;;;;;;;;;;27.40;40.50;;;;;;4995745;28;19914;-59
2021/03/31 15:04:25;;;;;;;;;;;27.40;40.50;;;;;;4995844;28;19959;-58